createdAt,value
2023-03-07T00:01:26.872Z,99.90
2023-03-07T00:03:53.931Z,99.90
2023-03-07T00:06:21.514Z,99.90
2023-03-07T00:08:52.847Z,99.90
2023-03-07T00:11:19.823Z,99.90
2023-03-07T00:13:46.720Z,99.90
2023-03-07T00:16:16.276Z,99.90
2023-03-07T00:18:43.931Z,99.90
2023-03-07T00:21:13.431Z,99.90
2023-03-07T00:23:42.729Z,99.90
2023-03-07T00:26:15.057Z,1.00
2023-03-07T00:28:41.929Z,99.90
2023-03-07T00:31:10.569Z,1.00
2023-03-07T00:33:37.746Z,1.00
2023-03-07T00:36:07.989Z,99.90
2023-03-07T00:38:35.173Z,1.00
2023-03-07T00:41:03.577Z,1.00
2023-03-07T00:43:31.054Z,1.00
2023-03-07T00:46:01.628Z,1.00
2023-03-07T00:48:29.150Z,1.00
2023-03-07T00:50:56.557Z,1.00
2023-03-07T00:53:23.535Z,1.00
2023-03-07T00:56:06.847Z,1.00
2023-03-07T00:58:35.976Z,1.00
2023-03-07T01:01:04.827Z,1.00
2023-03-07T01:03:32.328Z,1.00
2023-03-07T01:06:03.041Z,1.00
2023-03-07T01:08:30.407Z,1.00
2023-03-07T01:11:05.351Z,1.00
2023-03-07T01:13:33.669Z,1.00
2023-03-07T01:16:18.264Z,1.00
2023-03-07T01:18:52.039Z,1.00
2023-03-07T01:21:26.158Z,1.00
2023-03-07T01:23:52.989Z,1.00
2023-03-07T01:26:21.935Z,1.00
2023-03-07T01:28:50.855Z,1.00
2023-03-07T01:31:17.893Z,1.00
2023-03-07T01:33:47.266Z,1.00
2023-03-07T01:36:25.306Z,1.00
2023-03-07T01:38:55.026Z,1.00
2023-03-07T01:41:21.896Z,1.00
2023-03-07T01:43:48.758Z,1.00
2023-03-07T01:46:18.435Z,1.00
2023-03-07T01:48:52.486Z,1.00
2023-03-07T01:51:19.428Z,1.00
2023-03-07T01:53:47.175Z,1.00
2023-03-07T01:56:14.622Z,1.00
2023-03-07T01:58:41.671Z,1.00
2023-03-07T02:01:10.759Z,1.00
2023-03-07T02:03:40.055Z,1.00
2023-03-07T02:06:11.282Z,1.00
2023-03-07T02:08:38.894Z,1.00
2023-03-07T02:11:06.582Z,1.00
2023-03-07T02:13:33.518Z,1.00
2023-03-07T02:16:02.067Z,1.00
2023-03-07T02:18:32.800Z,1.00
2023-03-07T02:21:18.412Z,1.00
2023-03-07T02:24:08.533Z,1.00
2023-03-07T02:26:48.572Z,1.00
2023-03-07T02:29:15.656Z,1.00
2023-03-07T02:31:42.679Z,1.00
2023-03-07T02:34:23.246Z,1.00
2023-03-07T02:37:13.142Z,1.00
2023-03-07T02:39:43.009Z,1.00
2023-03-07T02:42:17.463Z,1.00
2023-03-07T02:44:46.209Z,1.00
2023-03-07T02:47:13.390Z,1.00
2023-03-07T02:49:40.177Z,1.00
2023-03-07T02:52:07.100Z,1.00
2023-03-07T02:54:33.918Z,1.00
2023-03-07T02:57:00.748Z,1.00
2023-03-07T02:59:27.540Z,1.00
2023-03-07T03:01:54.816Z,1.00
2023-03-07T03:04:21.604Z,1.00
2023-03-07T03:06:48.514Z,1.00
2023-03-07T03:09:15.373Z,1.00
2023-03-07T03:11:42.343Z,1.00
2023-03-07T03:14:09.205Z,1.00
2023-03-07T03:16:36.194Z,1.00
2023-03-07T03:19:03.473Z,1.00
2023-03-07T03:21:30.288Z,1.00
2023-03-07T03:23:57.062Z,1.00
2023-03-07T03:26:23.906Z,1.00
2023-03-07T03:28:54.319Z,1.00
2023-03-07T03:31:21.181Z,1.00
2023-03-07T03:33:49.430Z,1.00
2023-03-07T03:36:17.249Z,1.00
2023-03-07T03:38:44.223Z,9.40
2023-03-07T03:41:15.902Z,83.80
2023-03-07T03:43:42.719Z,99.90
2023-03-07T03:46:09.940Z,99.90
2023-03-07T03:48:36.735Z,99.90
2023-03-07T03:51:05.802Z,99.90
2023-03-07T03:53:34.252Z,99.90
2023-03-07T03:56:07.648Z,99.90
2023-03-07T03:58:35.561Z,99.90
2023-03-07T04:01:06.172Z,99.90
2023-03-07T04:03:33.778Z,99.90
2023-03-07T04:06:05.806Z,99.90
2023-03-07T04:08:33.639Z,99.90
2023-03-07T04:11:00.505Z,99.90
2023-03-07T04:13:27.709Z,99.90
2023-03-07T04:15:54.716Z,99.90
2023-03-07T04:18:22.736Z,99.90
2023-03-07T04:20:50.782Z,99.90
2023-03-07T04:23:18.555Z,99.90
2023-03-07T04:25:49.458Z,99.90
2023-03-07T04:28:19.503Z,99.90
2023-03-07T04:30:47.218Z,99.90
2023-03-07T04:33:14.025Z,99.90
2023-03-07T04:35:40.874Z,99.90
2023-03-07T04:38:08.068Z,99.90
2023-03-07T04:40:35.416Z,99.90
2023-03-07T04:43:02.321Z,99.90
2023-03-07T04:45:30.886Z,99.90
2023-03-07T04:47:57.733Z,99.90
2023-03-07T04:50:24.658Z,99.90
2023-03-07T04:52:51.498Z,99.90
2023-03-07T04:55:18.371Z,99.90
2023-03-07T04:57:45.283Z,99.90
2023-03-07T05:00:12.795Z,99.90
2023-03-07T05:02:39.654Z,99.90
2023-03-07T05:05:07.027Z,99.90
2023-03-07T05:07:33.847Z,99.90
2023-03-07T05:10:00.606Z,99.90
2023-03-07T05:12:27.449Z,99.90
2023-03-07T05:14:54.360Z,95.60
2023-03-07T05:17:21.123Z,99.90
2023-03-07T05:19:47.888Z,99.90
2023-03-07T05:22:14.742Z,78.70
2023-03-07T05:24:41.603Z,73.70
2023-03-07T05:27:08.388Z,59.90
2023-03-07T05:29:35.271Z,77.00
2023-03-07T05:32:02.690Z,35.40
2023-03-07T05:34:29.646Z,37.40
2023-03-07T05:36:58.340Z,30.00
2023-03-07T05:39:27.437Z,69.20
2023-03-07T05:41:55.077Z,98.10
2023-03-07T05:44:21.951Z,99.90
2023-03-07T05:46:48.759Z,99.70
2023-03-07T05:49:15.576Z,99.90
2023-03-07T05:51:42.373Z,99.90
2023-03-07T05:54:09.147Z,64.50
2023-03-07T05:56:36.037Z,37.10
2023-03-07T05:59:02.784Z,31.50
2023-03-07T06:01:29.606Z,42.90
2023-03-07T06:03:56.478Z,25.10
2023-03-07T06:06:23.255Z,65.30
2023-03-07T06:08:50.051Z,90.60
2023-03-07T06:11:16.812Z,50.90
2023-03-07T06:13:43.696Z,22.90
2023-03-07T06:16:10.510Z,1.00
2023-03-07T06:18:37.364Z,1.00
2023-03-07T06:21:05.968Z,1.00
2023-03-07T06:23:35.456Z,1.00
2023-03-07T06:26:03.165Z,1.00
2023-03-07T06:28:32.721Z,1.00
2023-03-07T06:30:59.993Z,1.00
2023-03-07T06:33:26.859Z,1.00
2023-03-07T06:35:53.747Z,1.00
2023-03-07T06:38:20.672Z,1.00
2023-03-07T06:40:56.229Z,1.00
2023-03-07T06:43:23.246Z,1.00
2023-03-07T06:45:50.115Z,1.00
2023-03-07T06:48:18.063Z,1.00
2023-03-07T06:50:45.732Z,1.00
2023-03-07T06:53:12.573Z,22.00
2023-03-07T06:55:39.348Z,78.80
2023-03-07T06:58:06.124Z,99.90
2023-03-07T07:00:32.914Z,99.90
2023-03-07T07:02:59.821Z,99.90
2023-03-07T07:05:26.923Z,71.80
2023-03-07T07:07:54.047Z,57.20
2023-03-07T07:10:20.814Z,86.40
2023-03-07T07:12:47.665Z,99.90
2023-03-07T07:15:14.575Z,99.90
2023-03-07T07:17:41.396Z,99.90
2023-03-07T07:20:11.320Z,99.90
2023-03-07T07:22:38.121Z,99.30
2023-03-07T07:25:05.360Z,1.00
2023-03-07T07:27:32.166Z,1.00
2023-03-07T07:29:58.951Z,1.00
2023-03-07T07:32:25.961Z,1.00
2023-03-07T07:34:52.920Z,1.00
2023-03-07T07:37:19.740Z,1.00
2023-03-07T07:39:46.557Z,1.00
2023-03-07T07:42:13.418Z,1.00
2023-03-07T07:44:40.281Z,1.00
2023-03-07T07:47:07.122Z,1.00
2023-03-07T07:49:33.994Z,1.00
2023-03-07T07:52:00.793Z,1.00
2023-03-07T07:54:28.196Z,1.00
2023-03-07T07:56:55.061Z,1.00
2023-03-07T07:59:21.857Z,1.00
2023-03-07T08:01:48.729Z,1.00
2023-03-07T08:04:15.523Z,1.00
2023-03-07T08:06:44.523Z,1.00
2023-03-07T08:09:11.482Z,1.00
2023-03-07T08:11:38.314Z,1.00
2023-03-07T08:14:05.175Z,1.00
2023-03-07T08:16:32.175Z,1.00
2023-03-07T08:18:59.051Z,99.90
2023-03-07T08:21:26.311Z,99.90
2023-03-07T08:23:54.447Z,99.90
2023-03-07T08:26:21.470Z,99.90
2023-03-07T08:28:48.459Z,99.90
2023-03-07T08:31:23.429Z,99.90
2023-03-07T08:33:51.271Z,99.90
2023-03-07T08:36:18.348Z,99.90
2023-03-07T08:38:50.888Z,99.90
2023-03-07T08:41:18.382Z,99.90
2023-03-07T08:43:45.296Z,99.90
2023-03-07T08:46:12.184Z,99.90
2023-03-07T08:48:39.065Z,99.90
2023-03-07T08:51:08.182Z,99.90
2023-03-07T08:53:35.251Z,99.90
2023-03-07T08:56:15.506Z,92.60
2023-03-07T08:58:42.434Z,68.70
2023-03-07T09:01:10.176Z,97.50
2023-03-07T09:03:36.981Z,52.00
2023-03-07T09:06:04.733Z,49.40
2023-03-07T09:08:32.230Z,24.60
2023-03-07T09:11:01.050Z,1.00
2023-03-07T09:13:27.867Z,1.00
2023-03-07T09:15:54.680Z,1.00
2023-03-07T09:18:23.029Z,1.00
2023-03-07T09:20:49.831Z,1.00
2023-03-07T09:23:16.754Z,1.00
2023-03-07T09:25:44.456Z,1.00
2023-03-07T09:28:11.319Z,1.00
2023-03-07T09:30:38.392Z,1.00
2023-03-07T09:33:05.278Z,1.00
2023-03-07T09:35:32.319Z,1.00
2023-03-07T09:37:59.282Z,1.00
2023-03-07T09:40:28.177Z,1.00
2023-03-07T09:43:04.617Z,1.00
2023-03-07T09:46:06.786Z,1.00
2023-03-07T09:48:39.862Z,1.00
2023-03-07T09:51:17.156Z,1.00
2023-03-07T09:53:52.007Z,1.00
2023-03-07T09:56:25.563Z,1.00
2023-03-07T09:59:02.551Z,1.00
2023-03-07T10:01:32.141Z,1.00
2023-03-07T10:04:05.096Z,1.00
2023-03-07T10:06:39.198Z,1.00
2023-03-07T10:09:12.147Z,1.00
2023-03-07T10:12:18.385Z,1.00
2023-03-07T10:15:09.398Z,1.00
2023-03-07T10:17:46.018Z,1.00
2023-03-07T10:20:17.915Z,1.00
2023-03-07T10:22:57.846Z,1.00
2023-03-07T10:25:28.772Z,1.00
2023-03-07T10:28:25.221Z,1.00
2023-03-07T10:30:54.725Z,1.00
2023-03-07T10:33:21.646Z,1.00
2023-03-07T10:35:58.830Z,1.00
2023-03-07T10:38:34.163Z,1.00
2023-03-07T10:41:06.552Z,99.90
2023-03-07T10:43:34.037Z,99.90
2023-03-07T10:46:23.950Z,99.90
2023-03-07T10:48:58.315Z,1.00
2023-03-07T10:51:31.694Z,99.90
2023-03-07T10:53:58.572Z,99.90
2023-03-07T10:56:25.496Z,99.90
2023-03-07T10:59:05.498Z,99.90
2023-03-07T11:01:33.822Z,99.90
2023-03-07T11:04:11.113Z,99.90
2023-03-07T11:06:40.373Z,99.90
2023-03-07T11:09:14.350Z,99.90
2023-03-07T11:11:48.402Z,99.90
2023-03-07T11:14:16.937Z,99.90
2023-03-07T11:16:59.989Z,99.90
2023-03-07T11:19:39.131Z,99.90
2023-03-07T11:22:23.407Z,99.90
2023-03-07T11:25:13.280Z,99.90
2023-03-07T11:27:49.505Z,99.90
2023-03-07T11:30:36.043Z,99.90
2023-03-07T11:33:22.122Z,99.90
2023-03-07T11:36:02.519Z,99.90
2023-03-07T11:38:55.803Z,99.90
2023-03-07T11:41:30.116Z,99.90
2023-03-07T11:44:16.827Z,99.90
2023-03-07T11:47:25.117Z,99.90
2023-03-07T11:50:12.061Z,1.00
2023-03-07T11:52:47.757Z,99.90
2023-03-07T11:55:27.940Z,99.90
2023-03-07T11:58:26.033Z,99.90
2023-03-07T12:00:58.691Z,99.90
2023-03-07T12:03:50.053Z,99.90
2023-03-07T12:06:35.132Z,99.90
2023-03-07T12:09:17.513Z,99.90
2023-03-07T12:11:53.610Z,99.90
2023-03-07T12:14:31.827Z,99.90
2023-03-07T12:17:10.897Z,99.90
2023-03-07T12:20:02.502Z,99.90
2023-03-07T12:22:39.803Z,99.90
2023-03-07T12:25:20.884Z,99.90
2023-03-07T12:27:47.600Z,99.90
2023-03-07T12:30:19.424Z,99.90
2023-03-07T12:32:46.688Z,99.90
2023-03-07T12:35:33.055Z,99.90
2023-03-07T12:38:12.262Z,99.90
2023-03-07T12:40:42.506Z,99.90
2023-03-07T12:43:37.792Z,2.20
2023-03-07T12:46:25.102Z,99.90
2023-03-07T12:49:04.563Z,99.90
2023-03-07T12:51:33.632Z,99.90
2023-03-07T12:54:39.819Z,99.90
2023-03-07T12:57:19.062Z,68.80
2023-03-07T12:59:46.139Z,99.90
2023-03-07T13:02:27.830Z,99.90
2023-03-07T13:04:54.850Z,99.90
2023-03-07T13:07:25.294Z,99.90
2023-03-07T13:09:54.948Z,99.90
2023-03-07T13:12:29.723Z,99.90
2023-03-07T13:15:02.055Z,99.90
2023-03-07T13:17:33.310Z,99.90
2023-03-07T13:20:15.694Z,1.00
2023-03-07T13:22:43.057Z,99.90
2023-03-07T13:25:27.198Z,68.40
2023-03-07T13:27:59.231Z,99.90
2023-03-07T13:30:32.619Z,99.90
2023-03-07T13:33:01.756Z,99.90
2023-03-07T13:35:28.718Z,99.90
2023-03-07T13:38:11.275Z,99.90
2023-03-07T13:40:42.255Z,5.70
2023-03-07T13:43:26.330Z,1.00
2023-03-07T13:46:01.038Z,99.90
2023-03-07T13:48:30.881Z,99.90
2023-03-07T13:51:00.533Z,99.90
2023-03-07T13:53:36.830Z,86.10
2023-03-07T13:56:28.997Z,67.10
2023-03-07T13:59:14.158Z,99.90
2023-03-07T14:01:55.516Z,1.00
2023-03-07T14:04:39.943Z,1.00
2023-03-07T14:07:31.926Z,1.00
2023-03-07T14:10:22.284Z,26.90
2023-03-07T14:13:20.784Z,30.40
2023-03-07T14:15:59.688Z,15.70
2023-03-07T14:18:26.468Z,30.50
2023-03-07T14:21:12.094Z,10.70
2023-03-07T14:23:50.585Z,1.00
2023-03-07T14:26:22.014Z,1.00
2023-03-07T14:28:51.371Z,99.90
2023-03-07T14:31:27.019Z,74.60
2023-03-07T14:33:54.323Z,5.60
2023-03-07T14:36:31.017Z,13.40
2023-03-07T14:39:02.287Z,99.90
2023-03-07T14:41:36.759Z,99.90
2023-03-07T14:44:41.045Z,99.90
2023-03-07T14:47:33.013Z,99.90
2023-03-07T14:50:02.788Z,99.90
2023-03-07T14:52:31.785Z,99.90
2023-03-07T14:55:04.561Z,99.90
2023-03-07T14:57:40.393Z,99.90
2023-03-07T15:00:12.958Z,99.90
2023-03-07T15:02:56.032Z,99.90
2023-03-07T15:05:29.863Z,99.90
2023-03-07T15:07:57.293Z,99.90
2023-03-07T15:10:44.584Z,99.90
2023-03-07T15:13:30.508Z,99.90
2023-03-07T15:16:04.758Z,99.90
2023-03-07T15:18:38.341Z,99.90
2023-03-07T15:21:06.047Z,99.90
2023-03-07T15:23:33.227Z,99.90
2023-03-07T15:26:10.887Z,1.00
2023-03-07T15:28:41.165Z,1.00
2023-03-07T15:31:11.458Z,99.90
2023-03-07T15:33:38.298Z,1.00
2023-03-07T15:36:13.976Z,1.00
2023-03-07T15:38:46.007Z,1.00
2023-03-07T15:41:29.844Z,1.00
2023-03-07T15:44:13.929Z,1.00
2023-03-07T15:46:47.710Z,1.00
2023-03-07T15:49:42.816Z,1.00
2023-03-07T15:52:27.397Z,1.00
2023-03-07T15:54:56.801Z,1.00
2023-03-07T15:57:37.652Z,1.00
2023-03-07T16:00:27.105Z,1.00
2023-03-07T16:02:54.024Z,99.90
2023-03-07T16:05:21.818Z,1.00
2023-03-07T16:07:52.308Z,1.00
2023-03-07T16:10:19.502Z,1.00
2023-03-07T16:12:47.191Z,1.00
2023-03-07T16:15:15.517Z,1.00
2023-03-07T16:17:42.753Z,1.00
2023-03-07T16:20:29.028Z,99.90
2023-03-07T16:22:56.224Z,1.00
2023-03-07T16:25:24.953Z,99.90
2023-03-07T16:27:53.605Z,99.90
2023-03-07T16:30:26.326Z,1.00
2023-03-07T16:32:53.811Z,1.00
2023-03-07T16:35:26.475Z,1.00
2023-03-07T16:37:54.208Z,1.00
2023-03-07T16:40:22.834Z,1.00
2023-03-07T16:42:50.648Z,1.00
2023-03-07T16:45:26.565Z,1.00
2023-03-07T16:47:55.473Z,1.00
2023-03-07T16:50:28.527Z,1.00
2023-03-07T16:52:56.079Z,1.00
2023-03-07T16:55:23.755Z,1.00
2023-03-07T16:57:54.451Z,1.00
2023-03-07T17:00:24.558Z,1.00
2023-03-07T17:02:52.821Z,1.00
2023-03-07T17:05:27.592Z,1.00
2023-03-07T17:07:55.612Z,1.00
2023-03-07T17:10:23.738Z,1.00
2023-03-07T17:12:51.000Z,1.00
2023-03-07T17:15:20.722Z,1.00
2023-03-07T17:17:47.736Z,1.00
2023-03-07T17:20:17.323Z,1.00
2023-03-07T17:22:44.224Z,1.00
2023-03-07T17:25:11.068Z,1.00
2023-03-07T17:27:42.547Z,1.00
2023-03-07T17:30:15.206Z,1.00
2023-03-07T17:32:42.151Z,1.00
2023-03-07T17:35:09.895Z,1.00
2023-03-07T17:37:37.067Z,1.00
2023-03-07T17:40:10.096Z,1.00
2023-03-07T17:42:38.245Z,1.00
2023-03-07T17:45:06.529Z,99.90
2023-03-07T17:47:33.819Z,1.00
2023-03-07T17:50:07.249Z,1.00
2023-03-07T17:52:34.580Z,1.00
2023-03-07T17:55:01.791Z,1.00
2023-03-07T17:57:29.485Z,99.90
2023-03-07T17:59:58.513Z,99.90
2023-03-07T18:02:25.968Z,1.00
2023-03-07T18:04:52.754Z,1.00
2023-03-07T18:07:19.875Z,1.00
2023-03-07T18:09:51.494Z,1.00
2023-03-07T18:12:22.990Z,1.00
2023-03-07T18:14:50.070Z,1.00
2023-03-07T18:17:17.110Z,99.90
2023-03-07T18:19:44.781Z,99.90
2023-03-07T18:22:11.602Z,99.90
2023-03-07T18:24:38.432Z,99.90
2023-03-07T18:27:08.661Z,99.90
2023-03-07T18:29:35.560Z,1.00
2023-03-07T18:32:02.532Z,1.00
2023-03-07T18:34:29.389Z,1.00
2023-03-07T18:36:56.403Z,99.90
2023-03-07T18:39:23.765Z,99.90
2023-03-07T18:41:50.730Z,99.90
2023-03-07T18:44:18.706Z,99.90
2023-03-07T18:46:45.937Z,99.90
2023-03-07T18:49:13.116Z,99.90
2023-03-07T18:51:40.332Z,1.00
2023-03-07T18:54:09.077Z,1.00
2023-03-07T18:56:35.964Z,1.00
2023-03-07T18:59:03.163Z,1.00
2023-03-07T19:01:32.270Z,29.10
2023-03-07T19:04:03.181Z,99.90
2023-03-07T19:06:36.280Z,99.90
2023-03-07T19:09:03.898Z,99.90
2023-03-07T19:11:31.736Z,99.90
2023-03-07T19:13:58.637Z,99.90
2023-03-07T19:16:28.193Z,99.90
2023-03-07T19:18:56.091Z,1.00
2023-03-07T19:21:24.741Z,99.90
2023-03-07T19:23:52.684Z,1.00
2023-03-07T19:26:20.571Z,1.00
2023-03-07T19:28:49.811Z,1.00
2023-03-07T19:31:21.793Z,1.00
2023-03-07T19:33:50.638Z,1.00
2023-03-07T19:36:23.273Z,1.00
2023-03-07T19:38:52.656Z,1.00
2023-03-07T19:41:21.819Z,1.00
2023-03-07T19:43:49.040Z,1.00
2023-03-07T19:46:17.794Z,1.00
2023-03-07T19:48:44.776Z,1.00
2023-03-07T19:51:21.302Z,1.00
2023-03-07T19:53:48.891Z,1.00
2023-03-07T19:56:22.079Z,1.00
2023-03-07T19:58:49.382Z,1.00
2023-03-07T20:01:18.867Z,1.00
2023-03-07T20:03:46.053Z,1.00
2023-03-07T20:06:19.738Z,1.00
2023-03-07T20:08:48.629Z,1.00
2023-03-07T20:11:18.183Z,1.00
2023-03-07T20:13:48.484Z,42.70
2023-03-07T20:16:16.962Z,99.90
2023-03-07T20:18:43.982Z,99.90
2023-03-07T20:21:13.225Z,99.90
2023-03-07T20:23:42.867Z,99.90
2023-03-07T20:26:12.306Z,99.90
2023-03-07T20:28:39.203Z,83.10
2023-03-07T20:31:10.505Z,46.00
2023-03-07T20:33:38.941Z,1.00
2023-03-07T20:36:08.652Z,1.00
2023-03-07T20:38:37.259Z,1.00
2023-03-07T20:41:15.028Z,1.00
2023-03-07T20:43:42.042Z,1.00
2023-03-07T20:46:13.013Z,90.00
2023-03-07T20:48:41.226Z,64.10
2023-03-07T20:51:11.372Z,1.00
2023-03-07T20:53:38.209Z,4.00
2023-03-07T20:56:06.178Z,99.90
2023-03-07T20:58:33.521Z,99.90
2023-03-07T21:01:00.979Z,99.90
2023-03-07T21:03:28.395Z,99.90
2023-03-07T21:06:01.206Z,99.90
2023-03-07T21:08:29.950Z,99.90
2023-03-07T21:11:14.111Z,1.00
2023-03-07T21:13:42.554Z,1.00
2023-03-07T21:16:20.772Z,1.00
2023-03-07T21:18:48.167Z,1.00
2023-03-07T21:21:20.019Z,1.00
2023-03-07T21:23:47.453Z,1.00
2023-03-07T21:26:16.880Z,1.00
2023-03-07T21:28:44.155Z,1.00
2023-03-07T21:31:13.843Z,1.00
2023-03-07T21:33:43.549Z,1.00
2023-03-07T21:36:13.827Z,1.00
2023-03-07T21:38:41.966Z,1.00
2023-03-07T21:41:09.093Z,1.00
2023-03-07T21:43:36.120Z,1.00
2023-03-07T21:46:08.606Z,1.00
2023-03-07T21:48:35.705Z,1.00
2023-03-07T21:51:06.067Z,1.00
2023-03-07T21:53:33.322Z,1.00
2023-03-07T21:56:09.488Z,1.00
2023-03-07T21:58:36.781Z,1.00
2023-03-07T22:01:14.547Z,1.00
2023-03-07T22:03:42.003Z,1.00
2023-03-07T22:06:11.327Z,1.00
2023-03-07T22:08:38.623Z,1.00
2023-03-07T22:11:07.135Z,1.00
2023-03-07T22:13:35.719Z,1.00
2023-03-07T22:16:04.798Z,1.00
2023-03-07T22:18:33.026Z,1.00
2023-03-07T22:21:11.117Z,1.00
2023-03-07T22:23:37.939Z,1.00
2023-03-07T22:26:06.978Z,1.00
2023-03-07T22:28:34.336Z,1.00
2023-03-07T22:31:02.942Z,1.00
2023-03-07T22:33:29.698Z,1.00
2023-03-07T22:36:02.277Z,1.00
2023-03-07T22:38:29.283Z,1.00
2023-03-07T22:41:04.613Z,1.00
2023-03-07T22:43:35.575Z,1.00
2023-03-07T22:46:02.752Z,1.00
2023-03-07T22:48:30.498Z,1.00
2023-03-07T22:50:57.945Z,1.00
2023-03-07T22:53:27.362Z,1.00
2023-03-07T22:55:54.236Z,1.00
2023-03-07T22:58:21.066Z,1.00
2023-03-07T23:00:47.894Z,1.00
2023-03-07T23:03:14.756Z,1.00
2023-03-07T23:05:41.611Z,1.00
2023-03-07T23:08:09.437Z,1.00
2023-03-07T23:10:36.266Z,1.00
2023-03-07T23:13:03.142Z,1.00
2023-03-07T23:15:30.007Z,1.00
2023-03-07T23:17:57.642Z,1.00
2023-03-07T23:20:26.616Z,1.00
2023-03-07T23:22:53.541Z,1.00
2023-03-07T23:25:20.935Z,1.00
2023-03-07T23:27:48.134Z,1.00
2023-03-07T23:30:17.494Z,1.00
2023-03-07T23:32:44.496Z,1.00
2023-03-07T23:35:12.570Z,1.00
2023-03-07T23:37:41.692Z,1.00
2023-03-07T23:40:10.750Z,1.00
2023-03-07T23:42:37.524Z,1.00
2023-03-07T23:45:04.762Z,1.00
2023-03-07T23:47:31.556Z,1.00
2023-03-07T23:49:58.366Z,1.00
2023-03-07T23:52:25.180Z,1.00
2023-03-07T23:54:52.006Z,1.00
2023-03-07T23:57:18.878Z,1.00
2023-03-07T23:59:47.788Z,1.00
